Time;durP1;ratioP1;P1;durP2;ratioP2;P2;SDS_P1;SDS_P2;PMS_P1;PMS_P2;Temp;Humidity;BMP_temperature;BMP_pressure;BME280_temperature;BME280_humidity;BME280_pressure;Samples;Min_cycle;Max_cycle;Signal;HPM_P1;HPM_P2
2022/12/08 00:00:18;;;;;;;7.87;6.80;;;;;;;;;;5043956;28;20326;-78
2022/12/08 00:02:45;;;;;;;8.53;6.60;;;;;;;;;;5039487;28;20222;-79
2022/12/08 00:10:45;;;;;;;7.03;6.10;;;;;;;;;;5042192;28;20206;-76
2022/12/08 00:13:16;;;;;;;9.47;6.93;;;;;;;;;;5039459;28;20237;-79
2022/12/08 00:15:43;;;;;;;8.33;6.43;;;;;;;;;;5030806;28;20278;-78
2022/12/08 00:18:10;;;;;;;8.23;6.67;;;;;;;;;;5024086;28;20248;-78
2022/12/08 00:20:37;;;;;;;10.90;7.80;;;;;;;;;;5037299;28;20204;-79
2022/12/08 00:23:04;;;;;;;12.87;8.37;;;;;;;;;;5031660;28;20229;-76
2022/12/08 00:25:35;;;;;;;12.43;7.90;;;;;;;;;;5040022;28;20194;-77
2022/12/08 00:28:02;;;;;;;14.03;9.27;;;;;;;;;;5060938;28;20205;-79
2022/12/08 00:30:30;;;;;;;15.03;9.93;;;;;;;;;;5059878;28;20201;-78
2022/12/08 00:32:57;;;;;;;13.67;10.43;;;;;;;;;;5063404;28;20253;-79
2022/12/08 00:35:24;;;;;;;11.20;8.57;;;;;;;;;;5061978;28;20301;-78
2022/12/08 00:37:51;;;;;;;10.30;7.83;;;;;;;;;;5051490;28;20237;-78
2022/12/08 00:40:26;;;;;;;12.07;8.50;;;;;;;;;;5042237;28;20204;-79
2022/12/08 00:42:53;;;;;;;11.47;8.37;;;;;;;;;;5025443;28;21443;-77
2022/12/08 00:45:21;;;;;;;10.90;8.60;;;;;;;;;;5036008;28;20227;-77
2022/12/08 00:47:49;;;;;;;10.53;8.47;;;;;;;;;;5031938;28;20214;-77
2022/12/08 00:50:16;;;;;;;11.90;7.73;;;;;;;;;;5040645;28;20204;-79
2022/12/08 00:52:43;;;;;;;11.43;8.20;;;;;;;;;;5039534;28;20697;-78
2022/12/08 00:55:10;;;;;;;9.53;7.40;;;;;;;;;;5025457;28;20215;-78
2022/12/08 00:57:38;;;;;;;11.23;7.73;;;;;;;;;;5028517;28;20226;-78
2022/12/08 01:00:06;;;;;;;12.20;8.87;;;;;;;;;;5037642;28;20205;-77
2022/12/08 01:02:35;;;;;;;10.87;8.73;;;;;;;;;;5040785;28;20225;-77
2022/12/08 01:05:02;;;;;;;12.57;8.43;;;;;;;;;;5037124;28;20198;-77
2022/12/08 01:07:30;;;;;;;10.20;7.70;;;;;;;;;;5057320;28;20202;-77
2022/12/08 01:09:57;;;;;;;9.90;7.00;;;;;;;;;;5061112;28;20206;-77
2022/12/08 01:12:24;;;;;;;6.87;6.10;;;;;;;;;;5067557;28;20204;-79
2022/12/08 01:14:52;;;;;;;8.20;6.60;;;;;;;;;;5061522;28;20258;-77
2022/12/08 01:17:24;;;;;;;9.67;6.50;;;;;;;;;;5062776;28;20221;-80
2022/12/08 01:19:52;;;;;;;9.33;6.80;;;;;;;;;;5040065;28;20198;-79
2022/12/08 01:22:19;;;;;;;11.33;7.97;;;;;;;;;;5036712;28;20206;-79
2022/12/08 01:24:47;;;;;;;11.13;8.13;;;;;;;;;;5045941;28;20595;-76
2022/12/08 01:27:15;;;;;;;11.53;7.80;;;;;;;;;;5038390;28;20213;-77
2022/12/08 01:29:42;;;;;;;10.43;7.13;;;;;;;;;;5041000;28;20209;-79
2022/12/08 01:32:09;;;;;;;9.60;6.83;;;;;;;;;;5039967;28;20205;-79
2022/12/08 01:34:37;;;;;;;8.40;6.93;;;;;;;;;;5021453;28;20316;-77
2022/12/08 01:37:04;;;;;;;9.07;6.97;;;;;;;;;;5020849;28;20255;-74
2022/12/08 01:39:31;;;;;;;9.53;7.10;;;;;;;;;;5042460;28;20300;-77
2022/12/08 01:41:59;;;;;;;9.07;6.77;;;;;;;;;;5046538;28;20304;-79
2022/12/08 01:44:27;;;;;;;9.77;6.90;;;;;;;;;;5054196;28;20226;-79
2022/12/08 01:46:55;;;;;;;7.07;6.10;;;;;;;;;;5056518;28;20212;-80
2022/12/08 01:49:27;;;;;;;8.00;5.63;;;;;;;;;;5062875;28;20304;-79
2022/12/08 01:51:57;;;;;;;7.93;6.20;;;;;;;;;;5053786;28;20768;-79
2022/12/08 01:54:26;;;;;;;7.93;5.50;;;;;;;;;;5053174;28;20603;-78
2022/12/08 01:56:53;;;;;;;7.57;5.87;;;;;;;;;;5045721;28;20220;-77
2022/12/08 01:59:20;;;;;;;6.93;5.70;;;;;;;;;;5051690;28;20202;-78
2022/12/08 02:01:47;;;;;;;7.50;5.57;;;;;;;;;;5045562;28;20374;-79
2022/12/08 02:04:15;;;;;;;8.13;5.90;;;;;;;;;;5037818;28;20225;-80
2022/12/08 02:06:43;;;;;;;7.67;5.97;;;;;;;;;;5021574;28;20202;-78
2022/12/08 02:09:12;;;;;;;8.47;5.93;;;;;;;;;;5034440;28;20206;-78
2022/12/08 02:11:39;;;;;;;10.00;6.27;;;;;;;;;;5034000;28;20228;-78
2022/12/08 02:14:08;;;;;;;7.67;6.47;;;;;;;;;;5033152;28;20620;-77
2022/12/08 02:16:45;;;;;;;7.70;6.03;;;;;;;;;;5035814;28;20207;-78
2022/12/08 02:19:12;;;;;;;6.83;5.67;;;;;;;;;;5033675;28;20294;-79
2022/12/08 02:22:02;;;;;;;6.53;5.50;;;;;;;;;;5032151;28;20206;-77
2022/12/08 02:24:44;;;;;;;5.77;5.10;;;;;;;;;;5043754;28;20249;-76
2022/12/08 02:27:17;;;;;;;7.57;5.37;;;;;;;;;;5039715;28;20725;-78
2022/12/08 02:29:56;;;;;;;6.57;5.10;;;;;;;;;;5038211;28;20237;-79
2022/12/08 02:32:24;;;;;;;6.00;5.13;;;;;;;;;;5037681;28;20576;-77
2022/12/08 02:34:59;;;;;;;9.03;6.47;;;;;;;;;;5034282;28;20250;-77
2022/12/08 02:37:29;;;;;;;8.67;6.40;;;;;;;;;;5029666;28;20236;-80
2022/12/08 02:40:01;;;;;;;8.17;6.53;;;;;;;;;;5031118;28;20221;-77
2022/12/08 02:42:36;;;;;;;7.67;6.13;;;;;;;;;;5034167;28;20201;-77
2022/12/08 02:45:08;;;;;;;8.43;5.60;;;;;;;;;;5040415;28;20231;-79
2022/12/08 02:47:36;;;;;;;7.60;5.93;;;;;;;;;;5044415;28;20203;-77
2022/12/08 02:50:03;;;;;;;6.67;5.60;;;;;;;;;;5032220;28;20220;-79
2022/12/08 02:52:31;;;;;;;7.63;5.73;;;;;;;;;;5043966;28;20205;-80
2022/12/08 02:55:01;;;;;;;6.33;5.20;;;;;;;;;;5040324;28;20221;-81
2022/12/08 02:57:31;;;;;;;7.83;5.90;;;;;;;;;;5033001;28;20222;-79
2022/12/08 03:00:12;;;;;;;7.77;6.83;;;;;;;;;;5036846;28;20201;-81
2022/12/08 03:02:40;;;;;;;5.37;4.70;;;;;;;;;;5033531;28;20221;-77
2022/12/08 03:05:19;;;;;;;4.70;4.03;;;;;;;;;;5046085;28;21923;-77
2022/12/08 03:07:49;;;;;;;4.90;3.87;;;;;;;;;;5043049;28;20292;-77
2022/12/08 03:10:40;;;;;;;6.67;5.00;;;;;;;;;;5033665;28;21187;-78
2022/12/08 03:13:11;;;;;;;23.40;11.33;;;;;;;;;;5013701;28;20863;-79
2022/12/08 03:15:40;;;;;;;4.60;3.83;;;;;;;;;;5039524;28;20210;-80
2022/12/08 03:18:11;;;;;;;5.20;4.63;;;;;;;;;;5036587;28;20224;-78
2022/12/08 03:20:40;;;;;;;3.57;3.13;;;;;;;;;;5033015;28;20677;-78
2022/12/08 03:23:09;;;;;;;3.13;2.70;;;;;;;;;;5042603;28;20224;-79
2022/12/08 03:25:38;;;;;;;4.70;4.00;;;;;;;;;;5043295;28;20784;-78
2022/12/08 03:28:05;;;;;;;4.30;3.60;;;;;;;;;;5041672;28;20205;-78
2022/12/08 03:30:36;;;;;;;4.10;3.70;;;;;;;;;;5038330;28;20221;-79
2022/12/08 03:33:06;;;;;;;3.73;3.30;;;;;;;;;;5032781;28;20628;-77
2022/12/08 03:35:36;;;;;;;4.40;3.90;;;;;;;;;;5038005;28;20911;-79
2022/12/08 03:38:06;;;;;;;6.47;4.73;;;;;;;;;;5030206;28;20225;-77
2022/12/08 03:40:34;;;;;;;12.83;8.63;;;;;;;;;;5041562;28;20212;-76
2022/12/08 03:43:01;;;;;;;9.87;6.93;;;;;;;;;;5041898;28;20226;-78
2022/12/08 03:45:28;;;;;;;9.30;6.27;;;;;;;;;;5064586;28;20203;-81
2022/12/08 03:47:55;;;;;;;5.47;4.57;;;;;;;;;;5059462;28;20704;-78
2022/12/08 03:50:22;;;;;;;4.47;4.00;;;;;;;;;;5057776;28;20208;-79
2022/12/08 03:52:50;;;;;;;4.30;3.50;;;;;;;;;;5047728;28;20328;-78
2022/12/08 03:55:17;;;;;;;4.67;3.97;;;;;;;;;;5051886;28;20201;-78
2022/12/08 03:57:44;;;;;;;4.87;4.10;;;;;;;;;;5034203;28;20240;-77
2022/12/08 04:00:14;;;;;;;4.93;4.17;;;;;;;;;;5034178;28;20230;-77
2022/12/08 04:02:42;;;;;;;3.77;3.40;;;;;;;;;;5037656;28;20236;-80
2022/12/08 04:05:10;;;;;;;3.80;3.50;;;;;;;;;;5035400;28;20766;-77
2022/12/08 04:07:37;;;;;;;3.50;3.10;;;;;;;;;;5038565;28;20378;-77
2022/12/08 04:10:04;;;;;;;4.80;3.37;;;;;;;;;;5036309;28;20235;-79
2022/12/08 04:12:32;;;;;;;3.87;3.47;;;;;;;;;;5041506;28;20198;-79
2022/12/08 04:14:59;;;;;;;3.77;3.30;;;;;;;;;;5038055;28;20212;-79
2022/12/08 04:17:28;;;;;;;3.53;3.23;;;;;;;;;;5043142;28;20205;-80
2022/12/08 04:19:55;;;;;;;3.47;3.17;;;;;;;;;;5037725;28;20219;-80
2022/12/08 04:22:22;;;;;;;3.70;2.93;;;;;;;;;;5042517;28;20208;-78
2022/12/08 04:24:49;;;;;;;5.47;3.60;;;;;;;;;;5037312;28;20217;-79
2022/12/08 04:27:17;;;;;;;4.10;3.70;;;;;;;;;;5033914;28;20818;-81
2022/12/08 04:29:44;;;;;;;8.13;5.93;;;;;;;;;;5032811;28;20206;-79
2022/12/08 04:32:11;;;;;;;14.37;9.70;;;;;;;;;;5034478;28;21754;-78
2022/12/08 04:34:38;;;;;;;31.37;22.30;;;;;;;;;;5025895;28;20202;-80
2022/12/08 04:37:05;;;;;;;19.60;14.07;;;;;;;;;;5034447;28;20232;-79
2022/12/08 04:39:32;;;;;;;9.43;6.77;;;;;;;;;;5033617;28;23399;-77
2022/12/08 04:41:59;;;;;;;8.73;6.60;;;;;;;;;;5035463;28;20666;-79
2022/12/08 04:44:27;;;;;;;9.00;5.80;;;;;;;;;;5030022;28;20220;-79
2022/12/08 04:46:54;;;;;;;10.13;6.53;;;;;;;;;;5010138;28;20205;-78
2022/12/08 04:49:21;;;;;;;12.33;6.93;;;;;;;;;;5024871;28;20478;-81
2022/12/08 04:51:48;;;;;;;10.23;6.33;;;;;;;;;;5021987;28;20212;-78
2022/12/08 04:54:15;;;;;;;12.17;6.93;;;;;;;;;;5029724;28;20237;-81
2022/12/08 04:56:43;;;;;;;14.00;7.13;;;;;;;;;;5037475;28;20208;-79
2022/12/08 04:59:10;;;;;;;22.90;11.97;;;;;;;;;;5036057;28;20349;-77
2022/12/08 05:01:37;;;;;;;24.60;12.27;;;;;;;;;;5018623;28;20203;-78
2022/12/08 05:04:04;;;;;;;26.03;14.17;;;;;;;;;;5034814;28;20322;-78
2022/12/08 05:06:31;;;;;;;28.37;15.40;;;;;;;;;;5035484;28;20869;-79
2022/12/08 05:08:59;;;;;;;29.03;14.83;;;;;;;;;;5060381;28;20210;-80
2022/12/08 05:11:26;;;;;;;27.87;14.97;;;;;;;;;;5058909;28;20306;-79
2022/12/08 05:13:53;;;;;;;25.90;13.47;;;;;;;;;;5061378;28;20232;-76
2022/12/08 05:16:20;;;;;;;27.27;13.03;;;;;;;;;;5042489;28;20560;-77
2022/12/08 05:18:48;;;;;;;24.17;12.77;;;;;;;;;;5046847;28;20740;-79
2022/12/08 05:21:15;;;;;;;24.73;12.13;;;;;;;;;;5030036;28;20210;-77
2022/12/08 05:23:42;;;;;;;30.40;13.77;;;;;;;;;;5035668;28;20238;-80
2022/12/08 05:26:09;;;;;;;26.67;11.80;;;;;;;;;;5027404;28;21687;-79
2022/12/08 05:28:36;;;;;;;28.00;11.80;;;;;;;;;;5022167;28;20211;-79
2022/12/08 05:31:10;;;;;;;18.07;10.27;;;;;;;;;;5008906;28;20294;-77
2022/12/08 05:33:37;;;;;;;15.13;8.57;;;;;;;;;;5023966;28;20227;-80
2022/12/08 05:36:06;;;;;;;17.90;7.83;;;;;;;;;;5035528;28;20206;-77
2022/12/08 05:38:33;;;;;;;15.57;7.90;;;;;;;;;;5038081;28;20814;-81
2022/12/08 05:41:01;;;;;;;16.10;8.17;;;;;;;;;;5040044;28;20207;-77
2022/12/08 05:43:28;;;;;;;54.40;24.20;;;;;;;;;;5047252;28;20708;-81
2022/12/08 05:45:55;;;;;;;36.47;18.60;;;;;;;;;;5056129;28;21098;-78
2022/12/08 05:48:22;;;;;;;30.90;16.30;;;;;;;;;;5049948;28;20199;-78
2022/12/08 05:50:50;;;;;;;29.37;14.00;;;;;;;;;;5049360;28;20307;-80
2022/12/08 05:53:18;;;;;;;16.37;9.97;;;;;;;;;;5046213;28;20229;-82
2022/12/08 05:55:46;;;;;;;16.20;9.27;;;;;;;;;;5040087;28;20211;-81
2022/12/08 05:58:15;;;;;;;14.67;8.40;;;;;;;;;;5035818;28;20341;-78
2022/12/08 06:00:42;;;;;;;11.60;7.40;;;;;;;;;;5028452;28;20198;-80
2022/12/08 06:03:14;;;;;;;13.07;7.23;;;;;;;;;;5032430;28;20234;-79
2022/12/08 06:05:41;;;;;;;14.80;7.43;;;;;;;;;;5040736;28;20207;-77
2022/12/08 06:08:08;;;;;;;11.13;6.80;;;;;;;;;;5017016;28;20219;-78
2022/12/08 06:10:37;;;;;;;15.33;8.13;;;;;;;;;;5036743;28;20232;-76
2022/12/08 06:13:04;;;;;;;16.93;10.97;;;;;;;;;;5030743;28;20226;-80
2022/12/08 06:15:35;;;;;;;19.03;9.63;;;;;;;;;;5036271;28;20637;-75
2022/12/08 06:18:02;;;;;;;17.50;10.47;;;;;;;;;;5034789;28;20231;-80
2022/12/08 06:20:29;;;;;;;17.47;10.53;;;;;;;;;;5034686;28;20210;-80
2022/12/08 06:22:57;;;;;;;18.63;11.93;;;;;;;;;;5043761;28;20674;-80
2022/12/08 06:25:24;;;;;;;22.00;13.73;;;;;;;;;;5036464;28;20208;-81
2022/12/08 06:27:51;;;;;;;24.07;14.63;;;;;;;;;;5051582;28;20203;-77
2022/12/08 06:30:19;;;;;;;20.67;12.10;;;;;;;;;;5032186;28;20206;-78
2022/12/08 06:32:46;;;;;;;17.73;11.30;;;;;;;;;;5025692;28;20527;-76
2022/12/08 06:35:13;;;;;;;19.50;11.87;;;;;;;;;;5030102;28;20203;-78
2022/12/08 06:37:40;;;;;;;21.13;12.10;;;;;;;;;;5039929;28;20225;-80
2022/12/08 06:40:08;;;;;;;18.60;12.07;;;;;;;;;;5039477;28;20626;-79
2022/12/08 06:42:45;;;;;;;17.07;11.77;;;;;;;;;;5023933;28;20223;-78
2022/12/08 06:45:14;;;;;;;17.67;11.70;;;;;;;;;;5039926;28;20201;-76
2022/12/08 06:47:41;;;;;;;20.97;12.27;;;;;;;;;;5036425;28;20224;-79
2022/12/08 06:50:09;;;;;;;18.87;12.33;;;;;;;;;;5037505;28;20209;-78
2022/12/08 06:52:37;;;;;;;19.40;11.63;;;;;;;;;;5038919;28;20290;-79
2022/12/08 06:55:15;;;;;;;18.77;11.23;;;;;;;;;;5027186;28;20210;-78
2022/12/08 06:58:02;;;;;;;19.57;11.97;;;;;;;;;;5041827;28;20206;-76
2022/12/08 07:00:29;;;;;;;23.63;13.57;;;;;;;;;;5043621;28;20294;-78
2022/12/08 07:02:57;;;;;;;22.40;14.70;;;;;;;;;;5024852;28;20289;-77
2022/12/08 07:05:24;;;;;;;23.93;14.00;;;;;;;;;;5043801;28;20204;-78
2022/12/08 07:07:51;;;;;;;22.40;13.70;;;;;;;;;;5038763;28;20238;-79
2022/12/08 07:10:19;;;;;;;16.80;11.77;;;;;;;;;;5053532;28;20210;-75
2022/12/08 07:12:46;;;;;;;17.57;11.57;;;;;;;;;;5061791;28;20244;-75
2022/12/08 07:15:13;;;;;;;14.97;9.73;;;;;;;;;;5045630;28;20293;-78
2022/12/08 07:17:40;;;;;;;11.03;8.57;;;;;;;;;;5061036;28;20209;-76
2022/12/08 07:20:08;;;;;;;12.27;8.30;;;;;;;;;;5063767;28;20312;-78
2022/12/08 07:22:35;;;;;;;13.73;8.97;;;;;;;;;;5048176;28;20339;-77
2022/12/08 07:25:02;;;;;;;13.03;8.83;;;;;;;;;;5043715;28;20843;-77
2022/12/08 07:27:30;;;;;;;12.90;9.17;;;;;;;;;;5040160;28;20200;-77
2022/12/08 07:29:57;;;;;;;11.10;7.43;;;;;;;;;;5043889;28;20201;-78
2022/12/08 07:32:24;;;;;;;12.87;8.07;;;;;;;;;;5040369;28;20678;-78
2022/12/08 07:34:51;;;;;;;11.73;8.33;;;;;;;;;;5035355;28;20236;-81
2022/12/08 07:37:18;;;;;;;10.97;7.97;;;;;;;;;;5042621;28;20212;-76
2022/12/08 07:39:46;;;;;;;12.60;8.27;;;;;;;;;;5042108;28;20242;-78
2022/12/08 07:42:13;;;;;;;14.63;8.27;;;;;;;;;;5038557;28;20209;-78
2022/12/08 07:44:40;;;;;;;12.07;8.67;;;;;;;;;;5059381;28;20194;-77
2022/12/08 07:47:07;;;;;;;12.57;8.83;;;;;;;;;;5058766;28;20201;-75
2022/12/08 07:49:34;;;;;;;14.53;10.30;;;;;;;;;;5053317;28;20205;-80
2022/12/08 07:52:02;;;;;;;13.67;9.73;;;;;;;;;;5062506;28;20210;-77
2022/12/08 07:54:29;;;;;;;13.13;9.00;;;;;;;;;;5048679;28;20324;-77
2022/12/08 07:56:57;;;;;;;11.37;8.10;;;;;;;;;;5037978;28;20204;-78
2022/12/08 07:59:24;;;;;;;14.17;8.37;;;;;;;;;;5040592;28;20226;-79
2022/12/08 08:01:51;;;;;;;11.80;7.73;;;;;;;;;;5047341;28;20210;-79
2022/12/08 08:04:38;;;;;;;10.27;7.10;;;;;;;;;;5030993;28;20230;-78
2022/12/08 08:07:05;;;;;;;14.70;7.10;;;;;;;;;;5036077;28;20214;-78
2022/12/08 08:09:33;;;;;;;8.20;6.33;;;;;;;;;;5026075;28;20618;-80
2022/12/08 08:12:00;;;;;;;9.30;6.50;;;;;;;;;;5036621;28;20212;-75
2022/12/08 08:14:48;;;;;;;10.27;7.10;;;;;;;;;;5036761;28;20197;-77
2022/12/08 08:17:15;;;;;;;8.00;6.27;;;;;;;;;;5042453;28;20209;-79
2022/12/08 08:19:42;;;;;;;8.03;6.10;;;;;;;;;;5041469;28;20230;-79
2022/12/08 08:22:09;;;;;;;8.47;5.60;;;;;;;;;;5041258;28;20197;-77
2022/12/08 08:24:37;;;;;;;8.37;5.73;;;;;;;;;;5038229;28;20562;-80
2022/12/08 08:27:10;;;;;;;6.03;5.00;;;;;;;;;;5036043;28;20195;-78
2022/12/08 08:29:38;;;;;;;8.43;5.43;;;;;;;;;;5043207;28;20272;-80
2022/12/08 08:32:05;;;;;;;9.67;6.93;;;;;;;;;;5041011;28;20208;-78
2022/12/08 08:34:32;;;;;;;8.73;6.37;;;;;;;;;;5032322;28;20232;-78
2022/12/08 08:37:00;;;;;;;7.53;6.13;;;;;;;;;;5038761;28;20207;-81
2022/12/08 08:39:29;;;;;;;7.33;6.10;;;;;;;;;;5038153;28;21653;-77
2022/12/08 08:41:56;;;;;;;8.33;6.53;;;;;;;;;;5038673;28;20260;-80
2022/12/08 08:44:23;;;;;;;7.40;5.83;;;;;;;;;;5035568;28;20261;-79
2022/12/08 08:46:50;;;;;;;8.60;6.10;;;;;;;;;;5037361;28;20209;-80
2022/12/08 08:49:18;;;;;;;9.57;6.90;;;;;;;;;;5039903;28;20211;-79
2022/12/08 08:51:46;;;;;;;8.37;6.63;;;;;;;;;;5040387;28;20226;-80
2022/12/08 08:54:13;;;;;;;8.33;6.33;;;;;;;;;;5039171;28;21354;-81
2022/12/08 08:56:40;;;;;;;8.53;6.50;;;;;;;;;;5039357;28;20209;-77
2022/12/08 08:59:08;;;;;;;8.83;6.83;;;;;;;;;;5042444;28;20223;-79
2022/12/08 09:01:36;;;;;;;10.43;7.13;;;;;;;;;;5041554;28;20204;-80
2022/12/08 09:04:03;;;;;;;11.13;7.30;;;;;;;;;;5042220;28;20236;-80
2022/12/08 09:06:30;;;;;;;9.03;6.50;;;;;;;;;;5045384;28;20213;-79
2022/12/08 09:08:58;;;;;;;9.80;6.73;;;;;;;;;;5065835;28;20207;-78
2022/12/08 09:11:25;;;;;;;10.13;7.10;;;;;;;;;;5056348;28;20243;-78
2022/12/08 09:13:53;;;;;;;8.97;6.63;;;;;;;;;;5066133;28;20242;-80
2022/12/08 09:16:20;;;;;;;8.07;6.07;;;;;;;;;;5059009;28;20742;-80
2022/12/08 09:18:48;;;;;;;7.37;5.80;;;;;;;;;;5051964;28;20212;-76
2022/12/08 09:21:21;;;;;;;8.37;6.03;;;;;;;;;;5042033;28;20240;-76
2022/12/08 09:23:49;;;;;;;7.90;6.33;;;;;;;;;;5047670;28;20323;-79
2022/12/08 09:26:17;;;;;;;7.67;5.90;;;;;;;;;;5059099;28;20499;-78
2022/12/08 09:28:45;;;;;;;7.27;6.27;;;;;;;;;;5056783;28;20224;-79
2022/12/08 09:31:13;;;;;;;6.27;5.10;;;;;;;;;;5059854;28;20851;-77
2022/12/08 09:33:41;;;;;;;7.03;5.33;;;;;;;;;;5063371;28;20222;-79
2022/12/08 09:36:08;;;;;;;6.60;5.63;;;;;;;;;;5060942;28;20723;-79
2022/12/08 09:38:36;;;;;;;8.07;6.00;;;;;;;;;;5061577;28;20292;-75
2022/12/08 09:41:07;;;;;;;6.87;5.37;;;;;;;;;;5026686;28;20210;-80
2022/12/08 09:43:34;;;;;;;9.57;6.03;;;;;;;;;;5057233;28;20225;-78
2022/12/08 09:46:04;;;;;;;7.33;5.83;;;;;;;;;;5060842;28;20300;-76
2022/12/08 09:48:33;;;;;;;7.17;5.93;;;;;;;;;;5062153;28;20721;-78
2022/12/08 09:51:01;;;;;;;7.37;5.90;;;;;;;;;;5056561;28;20201;-77
2022/12/08 09:53:29;;;;;;;8.80;5.90;;;;;;;;;;5037512;28;20233;-77
2022/12/08 09:56:02;;;;;;;11.00;7.27;;;;;;;;;;5037669;28;20237;-78
2022/12/08 09:58:29;;;;;;;7.20;5.27;;;;;;;;;;5040980;28;20209;-80
2022/12/08 10:00:57;;;;;;;7.03;5.77;;;;;;;;;;5043753;28;20234;-79
2022/12/08 10:03:27;;;;;;;10.83;6.90;;;;;;;;;;5044663;28;20257;-78
2022/12/08 10:05:58;;;;;;;5.83;5.23;;;;;;;;;;5041537;28;20217;-79
2022/12/08 10:08:30;;;;;;;7.27;5.23;;;;;;;;;;5038990;28;20211;-77
2022/12/08 10:10:59;;;;;;;5.90;5.27;;;;;;;;;;5036271;28;20281;-78
2022/12/08 10:13:34;;;;;;;7.23;5.27;;;;;;;;;;5042997;28;20232;-77
2022/12/08 10:16:07;;;;;;;5.73;5.13;;;;;;;;;;5043421;28;20634;-77
2022/12/08 10:18:36;;;;;;;6.03;4.97;;;;;;;;;;5043170;28;20579;-80
2022/12/08 10:21:09;;;;;;;5.83;4.97;;;;;;;;;;5044717;28;20233;-79
2022/12/08 10:23:38;;;;;;;5.70;5.00;;;;;;;;;;5041228;28;20401;-80
2022/12/08 10:26:07;;;;;;;5.27;4.77;;;;;;;;;;5046673;28;20207;-78
2022/12/08 10:28:34;;;;;;;7.50;5.30;;;;;;;;;;5042583;28;20255;-77
2022/12/08 10:31:21;;;;;;;5.33;4.70;;;;;;;;;;5049768;28;20972;-78
2022/12/08 10:33:53;;;;;;;11.80;10.13;;;;;;;;;;5043601;28;20229;-78
2022/12/08 10:36:21;;;;;;;11.93;10.67;;;;;;;;;;5046152;28;20212;-77
2022/12/08 10:38:48;;;;;;;9.67;6.90;;;;;;;;;;5042003;28;21626;-78
2022/12/08 10:41:19;;;;;;;5.20;4.67;;;;;;;;;;5044922;28;20776;-78
2022/12/08 10:43:52;;;;;;;9.93;7.30;;;;;;;;;;5048537;28;20253;-78
2022/12/08 10:46:21;;;;;;;8.90;6.47;;;;;;;;;;5040434;28;20872;-78
2022/12/08 10:48:48;;;;;;;5.53;4.83;;;;;;;;;;5049074;28;20216;-76
2022/12/08 10:51:23;;;;;;;6.83;5.23;;;;;;;;;;5038262;28;20206;-79
2022/12/08 10:53:50;;;;;;;5.20;4.33;;;;;;;;;;5045399;28;20224;-80
2022/12/08 10:56:17;;;;;;;7.57;6.50;;;;;;;;;;5043364;28;20742;-77
2022/12/08 10:58:46;;;;;;;4.73;4.27;;;;;;;;;;5043507;28;20213;-79
2022/12/08 11:01:16;;;;;;;5.80;4.77;;;;;;;;;;5050720;28;20228;-78
2022/12/08 11:03:47;;;;;;;5.17;4.33;;;;;;;;;;5032660;28;20783;-79
2022/12/08 11:06:18;;;;;;;5.53;4.90;;;;;;;;;;5047498;28;20638;-79
2022/12/08 11:08:56;;;;;;;5.53;4.53;;;;;;;;;;5067576;28;20208;-79
2022/12/08 11:11:37;;;;;;;5.63;4.67;;;;;;;;;;5032364;28;20231;-79
2022/12/08 11:14:08;;;;;;;8.30;5.47;;;;;;;;;;5042271;28;20308;-78
2022/12/08 11:16:35;;;;;;;5.77;5.10;;;;;;;;;;5042418;28;20209;-78
2022/12/08 11:19:05;;;;;;;12.77;8.43;;;;;;;;;;5032491;28;20214;-80
2022/12/08 11:21:36;;;;;;;9.00;6.80;;;;;;;;;;5041178;28;20212;-81
2022/12/08 11:24:24;;;;;;;9.93;6.40;;;;;;;;;;5053459;28;20248;-80
2022/12/08 11:26:59;;;;;;;34.20;20.43;;;;;;;;;;5053049;28;20915;-77
2022/12/08 11:29:27;;;;;;;9.03;6.17;;;;;;;;;;5061013;28;20212;-78
2022/12/08 11:31:58;;;;;;;6.53;5.67;;;;;;;;;;5055939;28;20206;-80
2022/12/08 11:34:40;;;;;;;68.73;31.93;;;;;;;;;;5055730;28;20278;-79
2022/12/08 11:37:10;;;;;;;9.57;5.40;;;;;;;;;;5039154;28;20206;-81
2022/12/08 11:39:40;;;;;;;37.27;17.33;;;;;;;;;;5037148;28;20227;-80
2022/12/08 11:42:11;;;;;;;5.70;4.30;;;;;;;;;;5044337;28;20205;-77
2022/12/08 11:44:42;;;;;;;8.80;5.33;;;;;;;;;;5041642;28;20214;-76
2022/12/08 11:47:18;;;;;;;6.93;5.53;;;;;;;;;;5041164;28;20221;-78
2022/12/08 11:49:46;;;;;;;7.50;6.73;;;;;;;;;;5034746;28;20835;-78
2022/12/08 11:52:20;;;;;;;5.77;4.40;;;;;;;;;;5048627;28;20202;-78
2022/12/08 11:54:54;;;;;;;4.63;4.20;;;;;;;;;;5053637;28;20206;-81
2022/12/08 11:57:23;;;;;;;5.37;4.50;;;;;;;;;;5063647;28;20205;-77
2022/12/08 11:59:51;;;;;;;4.83;4.20;;;;;;;;;;5071520;28;20233;-80
2022/12/08 12:02:21;;;;;;;5.97;4.00;;;;;;;;;;5059936;28;20233;-79
2022/12/08 12:04:57;;;;;;;4.83;4.20;;;;;;;;;;5040982;28;20213;-81
2022/12/08 12:07:25;;;;;;;5.13;3.90;;;;;;;;;;5040717;28;20236;-80
2022/12/08 12:10:01;;;;;;;4.93;3.73;;;;;;;;;;5039676;28;20209;-78
2022/12/08 12:12:32;;;;;;;3.13;2.83;;;;;;;;;;5042967;28;20262;-78
2022/12/08 12:15:14;;;;;;;2.50;2.30;;;;;;;;;;5043692;28;20209;-80
2022/12/08 12:17:47;;;;;;;2.73;2.53;;;;;;;;;;5034050;28;20320;-77
2022/12/08 12:20:18;;;;;;;2.80;2.60;;;;;;;;;;5041490;28;20228;-77
2022/12/08 12:22:48;;;;;;;4.70;3.70;;;;;;;;;;5041790;28;20699;-77
2022/12/08 12:25:21;;;;;;;4.80;3.60;;;;;;;;;;5037543;28;20214;-81
2022/12/08 12:27:49;;;;;;;3.43;3.07;;;;;;;;;;5029345;28;20739;-77
2022/12/08 12:30:25;;;;;;;6.33;4.30;;;;;;;;;;5038662;28;20931;-77
2022/12/08 12:32:57;;;;;;;4.17;3.77;;;;;;;;;;5042077;28;20222;-76
2022/12/08 12:35:32;;;;;;;3.50;3.13;;;;;;;;;;5049180;28;20231;-77
2022/12/08 12:38:02;;;;;;;3.47;3.03;;;;;;;;;;5044352;28;20201;-77
2022/12/08 12:40:35;;;;;;;2.77;2.57;;;;;;;;;;5044417;28;20263;-80
2022/12/08 12:43:02;;;;;;;3.07;2.73;;;;;;;;;;5049702;28;20235;-77
2022/12/08 12:45:33;;;;;;;2.90;2.70;;;;;;;;;;5046858;28;20215;-76
2022/12/08 12:48:00;;;;;;;3.10;2.80;;;;;;;;;;5045086;28;20203;-78
2022/12/08 12:50:35;;;;;;;3.23;2.97;;;;;;;;;;5027959;28;20698;-78
2022/12/08 12:53:17;;;;;;;4.33;3.90;;;;;;;;;;5035539;28;20238;-79
2022/12/08 12:55:45;;;;;;;4.23;3.83;;;;;;;;;;5044168;28;20231;-76
2022/12/08 12:58:41;;;;;;;3.43;2.93;;;;;;;;;;5044951;28;20304;-79
2022/12/08 13:01:11;;;;;;;3.20;2.90;;;;;;;;;;5037143;28;20233;-79
2022/12/08 13:03:43;;;;;;;3.90;3.03;;;;;;;;;;5039369;28;20710;-79
2022/12/08 13:06:12;;;;;;;3.80;3.40;;;;;;;;;;5043084;28;20296;-80
2022/12/08 13:08:49;;;;;;;4.33;3.10;;;;;;;;;;5062705;28;20230;-77
2022/12/08 13:11:17;;;;;;;3.97;3.10;;;;;;;;;;5061691;28;20209;-78
2022/12/08 13:13:57;;;;;;;4.83;4.07;;;;;;;;;;5056654;28;20976;-78
2022/12/08 13:16:25;;;;;;;3.90;3.20;;;;;;;;;;5067106;28;20571;-78
2022/12/08 13:18:56;;;;;;;3.50;2.93;;;;;;;;;;5030251;28;20205;-77
2022/12/08 13:21:25;;;;;;;3.70;3.30;;;;;;;;;;5042947;28;20225;-76
2022/12/08 13:24:18;;;;;;;3.00;2.80;;;;;;;;;;5048419;28;20231;-76
2022/12/08 13:26:47;;;;;;;4.57;2.80;;;;;;;;;;5045136;28;20211;-77
2022/12/08 13:29:19;;;;;;;6.03;5.53;;;;;;;;;;5046309;28;20219;-80
2022/12/08 13:31:48;;;;;;;3.63;3.33;;;;;;;;;;5043129;28;20209;-79
2022/12/08 13:34:36;;;;;;;3.07;2.87;;;;;;;;;;5041636;28;20744;-78
2022/12/08 13:37:06;;;;;;;4.57;3.00;;;;;;;;;;5041248;28;20298;-80
2022/12/08 13:39:40;;;;;;;4.27;2.70;;;;;;;;;;5037594;28;20231;-82
2022/12/08 13:42:13;;;;;;;3.40;2.77;;;;;;;;;;5047359;28;20203;-76
2022/12/08 13:44:45;;;;;;;3.07;2.77;;;;;;;;;;5058336;28;20209;-77
2022/12/08 13:47:34;;;;;;;3.20;2.90;;;;;;;;;;5059753;28;20207;-76
2022/12/08 13:50:03;;;;;;;4.37;2.73;;;;;;;;;;5065056;28;20271;-77
2022/12/08 13:53:09;;;;;;;3.60;2.60;;;;;;;;;;5057568;28;20723;-79
2022/12/08 13:56:00;;;;;;;3.30;3.00;;;;;;;;;;5049090;28;20205;-78
2022/12/08 13:58:47;;;;;;;2.37;2.17;;;;;;;;;;5042646;28;22219;-78
2022/12/08 14:01:15;;;;;;;2.73;2.30;;;;;;;;;;5041048;28;20236;-77
2022/12/08 14:03:47;;;;;;;2.47;2.27;;;;;;;;;;5022780;28;20233;-79
2022/12/08 14:06:35;;;;;;;2.60;2.40;;;;;;;;;;5031216;28;20599;-81
2022/12/08 14:09:05;;;;;;;5.70;3.83;;;;;;;;;;5043341;28;20213;-76
2022/12/08 14:11:39;;;;;;;8.53;6.03;;;;;;;;;;5037731;28;20289;-78
2022/12/08 14:14:14;;;;;;;9.63;6.60;;;;;;;;;;5035602;28;20228;-76
2022/12/08 14:17:03;;;;;;;2.33;2.13;;;;;;;;;;5045838;28;20209;-79
2022/12/08 14:19:33;;;;;;;3.63;2.20;;;;;;;;;;5042738;28;20731;-76
2022/12/08 14:22:00;;;;;;;3.73;2.30;;;;;;;;;;5044927;28;20240;-79
2022/12/08 14:24:30;;;;;;;4.23;2.20;;;;;;;;;;5049449;28;20294;-80
2022/12/08 14:27:02;;;;;;;4.03;2.30;;;;;;;;;;5046571;28;20900;-79
2022/12/08 14:29:46;;;;;;;2.40;2.20;;;;;;;;;;5042449;28;20666;-79
2022/12/08 14:32:33;;;;;;;6.23;3.50;;;;;;;;;;5045695;28;20264;-77
2022/12/08 14:35:06;;;;;;;9.13;5.67;;;;;;;;;;5049353;28;20216;-80
2022/12/08 14:37:35;;;;;;;4.37;3.13;;;;;;;;;;5041699;28;23186;-80
2022/12/08 14:40:05;;;;;;;6.17;4.90;;;;;;;;;;5040489;28;20700;-77
2022/12/08 14:42:42;;;;;;;4.50;3.80;;;;;;;;;;5027062;28;20228;-79
2022/12/08 14:45:11;;;;;;;5.10;4.50;;;;;;;;;;5046686;28;20333;-76
2022/12/08 14:47:39;;;;;;;4.03;3.63;;;;;;;;;;5048658;28;20212;-79
2022/12/08 14:50:25;;;;;;;3.97;3.10;;;;;;;;;;5037733;28;20237;-79
2022/12/08 14:52:52;;;;;;;3.80;3.50;;;;;;;;;;5036724;28;21249;-81
2022/12/08 14:55:20;;;;;;;5.83;4.50;;;;;;;;;;5051774;28;20206;-78
2022/12/08 14:57:48;;;;;;;5.03;3.20;;;;;;;;;;5040482;28;21244;-76